Time;durP1;ratioP1;P1;durP2;ratioP2;P2;SDS_P1;SDS_P2;PMS_P1;PMS_P2;Temp;Humidity;BMP_temperature;BMP_pressure;BME280_temperature;BME280_humidity;BME280_pressure;Samples;Min_cycle;Max_cycle;Signal;HPM_P1;HPM_P2
2022/09/12 00:00:41;;;;;;;2.05;1.88;;;15.70;98.50;;;;;;5041115;28;20021;-71
2022/09/12 00:03:07;;;;;;;3.03;1.90;;;15.60;98.50;;;;;;5035867;28;20029;-71
2022/09/12 00:05:33;;;;;;;2.72;2.22;;;15.60;98.60;;;;;;5038465;28;20900;-71
2022/09/12 00:07:59;;;;;;;2.35;1.92;;;15.60;98.60;;;;;;5034993;28;20040;-71
2022/09/12 00:10:25;;;;;;;3.05;1.85;;;15.50;98.70;;;;;;5034672;28;20126;-71
2022/09/12 00:12:51;;;;;;;2.60;1.90;;;15.50;98.70;;;;;;5036878;28;20087;-71
2022/09/12 00:15:17;;;;;;;2.22;2.03;;;15.50;98.70;;;;;;5037113;28;20029;-71
2022/09/12 00:17:43;;;;;;;2.67;1.77;;;15.50;98.80;;;;;;5037592;28;20025;-71
2022/09/12 00:20:10;;;;;;;1.95;1.85;;;15.40;98.70;;;;;;5043908;28;20068;-71
2022/09/12 00:22:36;;;;;;;1.77;1.67;;;15.40;98.80;;;;;;5042842;28;20036;-71
2022/09/12 00:25:03;;;;;;;2.22;1.98;;;15.40;98.80;;;;;;5040248;28;20916;-71
2022/09/12 00:27:29;;;;;;;3.38;2.20;;;15.40;98.70;;;;;;5040782;28;20561;-71
2022/09/12 00:29:55;;;;;;;1.90;1.70;;;15.30;98.70;;;;;;5038271;28;20040;-71
2022/09/12 00:32:20;;;;;;;2.05;1.85;;;15.30;98.80;;;;;;5038687;28;20186;-71
2022/09/12 00:34:46;;;;;;;1.92;1.83;;;15.30;98.80;;;;;;5036071;28;20021;-71
2022/09/12 00:37:12;;;;;;;2.65;1.95;;;15.30;98.80;;;;;;5039357;28;20025;-71
2022/09/12 00:39:38;;;;;;;2.20;2.00;;;15.30;98.70;;;;;;5044173;28;20029;-70
2022/09/12 00:42:04;;;;;;;2.10;1.92;;;15.30;98.60;;;;;;5041354;28;20095;-71
2022/09/12 00:44:30;;;;;;;2.13;1.92;;;15.30;98.50;;;;;;5041299;28;20025;-71
2022/09/12 00:46:58;;;;;;;2.25;2.05;;;15.20;98.50;;;;;;5038738;28;20028;-71
2022/09/12 00:49:38;;;;;;;5.72;2.05;;;15.20;98.60;;;;;;5039370;28;20036;-71
2022/09/12 00:52:13;;;;;;;1.77;1.67;;;15.20;98.70;;;;;;5034788;28;20496;-71
2022/09/12 00:54:46;;;;;;;2.40;1.73;;;15.10;98.70;;;;;;5035251;28;20140;-71
2022/09/12 00:57:14;;;;;;;1.90;1.73;;;15.10;98.80;;;;;;5041968;28;20044;-71
2022/09/12 00:59:48;;;;;;;1.70;1.50;;;15.10;98.80;;;;;;5042347;28;20033;-71
2022/09/12 01:02:14;;;;;;;1.70;1.60;;;15.10;98.90;;;;;;5040498;28;20099;-71
2022/09/12 01:04:42;;;;;;;1.70;1.60;;;15.00;98.90;;;;;;5040042;28;20432;-72
2022/09/12 01:07:08;;;;;;;2.05;1.85;;;15.00;99.00;;;;;;5045077;28;20041;-71
2022/09/12 01:09:36;;;;;;;4.78;2.25;;;15.00;99.00;;;;;;5039488;28;20029;-71
2022/09/12 01:12:03;;;;;;;2.20;1.90;;;15.00;98.90;;;;;;5033709;28;20400;-71
2022/09/12 01:14:30;;;;;;;3.47;1.73;;;15.00;98.80;;;;;;5040792;28;20035;-71
2022/09/12 01:16:56;;;;;;;3.72;1.73;;;15.00;98.80;;;;;;5042677;28;20060;-71
2022/09/12 01:19:46;;;;;;;3.10;1.55;;;14.90;98.70;;;;;;5041167;28;20032;-71
2022/09/12 01:22:27;;;;;;;1.77;1.67;;;14.90;98.70;;;;;;5038582;28;20381;-71
2022/09/12 01:24:59;;;;;;;1.70;1.60;;;14.90;98.80;;;;;;5038832;28;20036;-71
2022/09/12 01:27:37;;;;;;;2.30;1.48;;;14.90;98.80;;;;;;5038083;28;20041;-71
2022/09/12 01:30:19;;;;;;;1.70;1.60;;;14.80;98.70;;;;;;5033777;28;20120;-71
2022/09/12 01:32:50;;;;;;;2.55;1.48;;;14.80;98.60;;;;;;5037768;28;20888;-71
2022/09/12 01:35:45;;;;;;;4.03;1.33;;;14.80;98.60;;;;;;5041839;28;20036;-71
2022/09/12 01:38:35;;;;;;;1.55;1.45;;;14.70;98.50;;;;;;5039825;28;20030;-71
2022/09/12 01:41:11;;;;;;;12.52;1.75;;;14.70;98.50;;;;;;5040481;28;20408;-71
2022/09/12 01:43:49;;;;;;;1.30;1.20;;;14.70;98.50;;;;;;5038779;28;20166;-71
2022/09/12 01:46:16;;;;;;;1.98;1.60;;;14.60;98.60;;;;;;5036200;28;20036;-71
2022/09/12 01:49:35;;;;;;;2.67;1.48;;;14.60;98.60;;;;;;5035640;28;20029;-71
2022/09/12 01:52:14;;;;;;;2.78;1.42;;;14.60;98.40;;;;;;5040371;28;20043;-73
2022/09/12 01:55:09;;;;;;;2.10;1.25;;;14.50;98.10;;;;;;5039507;28;20033;-71
2022/09/12 01:57:58;;;;;;;2.88;1.52;;;14.50;98.00;;;;;;5021139;28;20118;-71
2022/09/12 02:00:24;;;;;;;1.65;1.55;;;14.40;97.90;;;;;;5035093;28;20098;-71
2022/09/12 02:03:01;;;;;;;1.52;1.42;;;14.30;97.90;;;;;;5036731;28;20115;-71
2022/09/12 02:05:52;;;;;;;2.65;1.83;;;14.30;98.00;;;;;;5036904;28;20036;-72
2022/09/12 02:08:24;;;;;;;1.60;1.50;;;14.30;98.10;;;;;;5036004;28;20053;-71
2022/09/12 02:11:06;;;;;;;3.72;2.28;;;14.30;98.30;;;;;;5035395;28;20121;-71
2022/09/12 02:13:36;;;;;;;2.10;1.90;;;14.20;98.40;;;;;;5035529;28;20067;-71
2022/09/12 02:16:09;;;;;;;2.22;1.90;;;14.30;98.40;;;;;;5039688;28;20060;-71
2022/09/12 02:18:43;;;;;;;2.20;2.05;;;14.20;98.40;;;;;;5040503;28;20028;-72
2022/09/12 02:21:09;;;;;;;2.65;1.95;;;14.20;98.30;;;;;;5037061;28;20141;-71
2022/09/12 02:23:39;;;;;;;1.98;1.67;;;14.20;98.30;;;;;;5037639;28;20033;-71
2022/09/12 02:26:12;;;;;;;1.73;1.63;;;14.20;98.50;;;;;;5033427;28;20033;-72
2022/09/12 02:28:41;;;;;;;2.65;1.70;;;14.20;98.60;;;;;;5034092;28;20025;-70
2022/09/12 02:31:18;;;;;;;1.60;1.50;;;14.20;98.50;;;;;;5038976;28;20033;-72
2022/09/12 02:34:03;;;;;;;1.90;1.50;;;14.20;98.30;;;;;;5039993;28;20059;-71
2022/09/12 02:36:44;;;;;;;1.70;1.48;;;14.20;98.10;;;;;;5033300;28;20025;-71
2022/09/12 02:39:09;;;;;;;1.60;1.50;;;14.10;98.10;;;;;;5036015;28;20030;-71
2022/09/12 02:41:35;;;;;;;2.22;1.83;;;14.10;98.00;;;;;;5036973;28;20035;-71
2022/09/12 02:44:02;;;;;;;2.45;1.60;;;14.10;98.00;;;;;;5032971;28;20037;-71
2022/09/12 02:46:41;;;;;;;3.20;1.60;;;14.00;98.00;;;;;;5038767;28;20511;-71
2022/09/12 02:49:07;;;;;;;3.10;1.92;;;14.00;98.20;;;;;;5032628;28;20078;-71
2022/09/12 02:51:33;;;;;;;2.90;1.70;;;14.00;98.20;;;;;;5041692;28;20029;-71
2022/09/12 02:53:59;;;;;;;1.77;1.10;;;14.00;98.10;;;;;;5039013;28;20064;-71
2022/09/12 02:56:28;;;;;;;3.38;1.38;;;14.00;97.90;;;;;;5038698;28;20067;-71
2022/09/12 02:58:58;;;;;;;1.65;1.55;;;13.90;98.00;;;;;;5037262;28;20032;-71
2022/09/12 03:01:33;;;;;;;2.40;1.80;;;13.90;98.00;;;;;;5035906;28;20107;-71
2022/09/12 03:04:07;;;;;;;1.92;1.52;;;13.90;98.10;;;;;;5032889;28;20037;-71
2022/09/12 03:07:00;;;;;;;1.88;1.67;;;13.90;98.30;;;;;;5035167;28;20029;-71
2022/09/12 03:10:01;;;;;;;1.38;1.27;;;13.90;98.20;;;;;;5037289;28;20051;-71
2022/09/12 03:12:58;;;;;;;1.65;1.40;;;13.90;98.00;;;;;;5037683;28;20037;-71
2022/09/12 03:16:07;;;;;;;2.47;1.20;;;13.80;97.80;;;;;;5040862;28;20024;-71
2022/09/12 03:18:33;;;;;;;4.63;1.70;;;13.80;97.80;;;;;;5036639;28;20112;-71
2022/09/12 03:21:48;;;;;;;1.73;1.23;;;13.70;98.00;;;;;;5035659;28;20419;-71
2022/09/12 03:24:23;;;;;;;1.48;1.33;;;13.70;98.00;;;;;;5034248;28;20128;-71
2022/09/12 03:27:21;;;;;;;5.88;1.75;;;13.70;97.90;;;;;;5038325;28;20084;-71
2022/09/12 03:29:47;;;;;;;3.13;1.50;;;13.70;97.90;;;;;;5036530;28;20571;-71
2022/09/12 03:32:13;;;;;;;1.40;1.30;;;13.70;97.50;;;;;;5038847;28;20037;-71
2022/09/12 03:34:39;;;;;;;2.95;1.35;;;13.60;97.30;;;;;;5038122;28;20036;-71
2022/09/12 03:37:05;;;;;;;3.00;1.42;;;13.50;97.20;;;;;;5035296;28;20052;-71
2022/09/12 03:39:31;;;;;;;3.97;1.40;;;13.40;97.30;;;;;;5036337;28;20029;-71
2022/09/12 03:41:57;;;;;;;4.30;1.50;;;13.50;97.60;;;;;;5030825;28;20029;-71
2022/09/12 03:44:24;;;;;;;1.42;1.30;;;13.40;97.30;;;;;;5033982;28;20516;-70
2022/09/12 03:46:50;;;;;;;1.73;1.55;;;13.40;97.30;;;;;;5045507;28;20033;-71
2022/09/12 03:49:16;;;;;;;2.17;1.50;;;13.40;97.30;;;;;;5043629;28;20433;-71
2022/09/12 03:51:42;;;;;;;2.38;1.42;;;13.30;97.30;;;;;;5041906;28;20029;-71
2022/09/12 03:54:09;;;;;;;1.60;1.50;;;13.30;97.40;;;;;;5040225;28;20037;-71
2022/09/12 03:56:35;;;;;;;2.28;1.70;;;13.30;97.50;;;;;;5040497;28;20036;-71
2022/09/12 03:59:05;;;;;;;2.78;1.88;;;13.30;97.60;;;;;;5039392;28;20079;-71
2022/09/12 04:01:31;;;;;;;1.52;1.42;;;13.30;97.70;;;;;;5038656;28;20024;-71
2022/09/12 04:03:57;;;;;;;2.42;1.98;;;13.20;97.60;;;;;;5037784;28;20565;-71
2022/09/12 04:06:23;;;;;;;3.13;2.08;;;13.20;97.60;;;;;;5045048;28;20036;-71
2022/09/12 04:08:51;;;;;;;3.15;1.90;;;13.30;97.60;;;;;;5043407;28;20591;-71
2022/09/12 04:11:18;;;;;;;2.88;1.63;;;13.20;97.90;;;;;;5041256;28;20029;-71
2022/09/12 04:13:45;;;;;;;2.88;1.70;;;13.20;97.80;;;;;;5041092;28;20041;-71
2022/09/12 04:16:12;;;;;;;2.28;1.60;;;13.20;98.00;;;;;;5039283;28;20275;-71
2022/09/12 04:18:38;;;;;;;5.65;1.95;;;13.20;98.10;;;;;;5037261;28;20028;-71
2022/09/12 04:21:06;;;;;;;2.42;2.10;;;13.20;98.00;;;;;;5034996;28;20033;-71
2022/09/12 04:23:33;;;;;;;2.25;2.05;;;13.20;97.60;;;;;;5039185;28;20033;-71
2022/09/12 04:26:01;;;;;;;2.17;1.98;;;13.20;97.50;;;;;;5043388;28;20060;-71
2022/09/12 04:28:31;;;;;;;1.95;1.83;;;13.20;97.60;;;;;;5036875;28;20106;-71
2022/09/12 04:31:01;;;;;;;6.50;2.25;;;13.10;97.70;;;;;;5040371;28;20064;-71
2022/09/12 04:33:27;;;;;;;7.13;2.75;;;13.10;97.70;;;;;;5038541;28;20025;-71
2022/09/12 04:35:53;;;;;;;6.93;2.30;;;13.10;97.90;;;;;;5037744;28;20075;-71
2022/09/12 04:38:18;;;;;;;2.75;2.53;;;13.10;98.00;;;;;;5037624;28;20039;-71
2022/09/12 04:40:44;;;;;;;2.08;1.92;;;13.10;98.10;;;;;;5035507;28;20151;-71
2022/09/12 04:43:10;;;;;;;3.78;2.03;;;13.10;97.80;;;;;;5041827;28;20196;-71
2022/09/12 04:45:35;;;;;;;4.18;1.95;;;13.10;97.80;;;;;;5043062;28;20055;-71
2022/09/12 04:48:01;;;;;;;2.63;2.00;;;13.10;97.60;;;;;;5040903;28;20844;-71
2022/09/12 04:50:27;;;;;;;4.55;2.42;;;13.10;97.60;;;;;;5041369;28;20032;-71
2022/09/12 04:52:54;;;;;;;3.78;2.17;;;13.00;97.60;;;;;;5038434;28;20512;-71
2022/09/12 04:55:20;;;;;;;5.90;2.33;;;13.00;97.40;;;;;;5038170;28;20034;-71
2022/09/12 04:57:46;;;;;;;2.60;2.08;;;13.00;97.40;;;;;;5034854;28;20060;-71
2022/09/12 05:00:13;;;;;;;3.55;2.00;;;13.00;97.50;;;;;;5035075;28;20839;-71
2022/09/12 05:02:42;;;;;;;6.97;2.55;;;12.90;97.50;;;;;;5043356;28;20683;-70
2022/09/12 05:05:08;;;;;;;2.83;2.60;;;12.90;97.70;;;;;;5041487;28;20048;-71
2022/09/12 05:07:34;;;;;;;3.15;2.85;;;13.00;97.90;;;;;;5041694;28;20211;-71
2022/09/12 05:10:02;;;;;;;4.00;3.08;;;13.00;97.90;;;;;;5038221;28;20039;-71
2022/09/12 05:12:27;;;;;;;3.50;2.70;;;13.00;98.00;;;;;;5039067;28;20098;-71
2022/09/12 05:14:53;;;;;;;3.17;2.88;;;13.10;98.20;;;;;;5036102;28;20029;-71
2022/09/12 05:17:19;;;;;;;4.97;2.88;;;13.10;98.40;;;;;;5036419;28;20079;-71
2022/09/12 05:19:46;;;;;;;3.10;2.58;;;13.20;98.50;;;;;;5036316;28;20025;-71
2022/09/12 05:22:12;;;;;;;2.95;2.20;;;13.20;98.30;;;;;;5042193;28;20128;-71
2022/09/12 05:24:38;;;;;;;5.28;2.53;;;13.20;98.20;;;;;;5041706;28;20029;-71
2022/09/12 05:27:04;;;;;;;4.63;2.20;;;13.20;98.00;;;;;;5040775;28;20039;-71
2022/09/12 05:29:30;;;;;;;3.53;2.58;;;13.30;97.90;;;;;;5039402;28;20119;-71
2022/09/12 05:31:56;;;;;;;4.38;2.60;;;13.30;97.90;;;;;;5036188;28;20032;-71
2022/09/12 05:34:22;;;;;;;3.80;2.50;;;13.30;97.80;;;;;;5036735;28;20103;-71
2022/09/12 05:36:48;;;;;;;4.60;3.05;;;13.30;97.80;;;;;;5034572;28;20496;-71
2022/09/12 05:39:14;;;;;;;3.40;2.53;;;13.30;97.80;;;;;;5041208;28;20025;-70
2022/09/12 05:41:39;;;;;;;3.45;2.40;;;13.40;97.90;;;;;;5043059;28;20453;-71
2022/09/12 05:44:09;;;;;;;5.05;2.65;;;13.50;97.90;;;;;;5038391;28;20044;-71
2022/09/12 05:46:38;;;;;;;4.25;3.15;;;13.50;97.90;;;;;;5040550;28;20151;-70
2022/09/12 05:49:06;;;;;;;5.15;2.58;;;13.60;97.90;;;;;;5036456;28;20040;-71
2022/09/12 05:51:34;;;;;;;3.60;2.38;;;13.60;97.70;;;;;;5037723;28;20053;-71
2022/09/12 05:54:02;;;;;;;4.82;3.58;;;13.70;97.90;;;;;;5032393;28;20122;-71
2022/09/12 05:56:30;;;;;;;5.68;4.07;;;13.70;98.10;;;;;;5035223;28;20120;-71
2022/09/12 05:59:06;;;;;;;4.40;3.58;;;13.80;98.20;;;;;;5039053;28;20477;-71
2022/09/12 06:01:33;;;;;;;4.63;3.40;;;13.80;98.30;;;;;;5031844;28;20067;-71
2022/09/12 06:04:02;;;;;;;7.20;3.53;;;13.90;98.50;;;;;;5038254;28;20037;-71
2022/09/12 06:06:29;;;;;;;4.47;3.80;;;13.90;98.60;;;;;;5037170;28;20103;-71
2022/09/12 06:08:58;;;;;;;4.15;3.75;;;14.00;98.80;;;;;;5035714;28;20029;-71
2022/09/12 06:11:27;;;;;;;3.80;3.10;;;14.10;98.80;;;;;;5036323;28;20047;-71
2022/09/12 06:13:54;;;;;;;3.45;3.15;;;14.10;98.90;;;;;;5032954;28;20041;-71
2022/09/12 06:16:22;;;;;;;4.03;3.13;;;14.20;98.90;;;;;;5045456;28;20025;-71
2022/09/12 06:18:49;;;;;;;4.93;3.53;;;14.30;99.00;;;;;;5041922;28;20037;-71
2022/09/12 06:21:15;;;;;;;4.25;3.72;;;14.30;99.10;;;;;;5039144;28;20099;-71
2022/09/12 06:23:41;;;;;;;4.50;3.83;;;14.40;99.10;;;;;;5039439;28;20444;-71
2022/09/12 06:26:09;;;;;;;5.72;4.15;;;14.40;99.30;;;;;;5036808;28;20734;-71
2022/09/12 06:28:37;;;;;;;4.30;3.90;;;14.40;99.40;;;;;;5037832;28;20037;-71
2022/09/12 06:31:09;;;;;;;4.07;3.65;;;14.50;99.40;;;;;;5033660;28;20037;-71
2022/09/12 06:33:37;;;;;;;3.22;2.92;;;14.60;99.40;;;;;;5035549;28;20029;-71
2022/09/12 06:36:05;;;;;;;3.97;3.58;;;14.60;99.50;;;;;;5039699;28;20074;-71
2022/09/12 06:38:32;;;;;;;3.83;3.30;;;14.70;99.60;;;;;;5042029;28;20412;-69
2022/09/12 06:40:59;;;;;;;4.70;4.20;;;14.80;99.70;;;;;;5039582;28;20033;-71
2022/09/12 06:43:25;;;;;;;4.38;3.70;;;14.80;99.80;;;;;;5038932;28;20064;-69
2022/09/12 06:45:51;;;;;;;5.10;4.60;;;14.90;99.90;;;;;;5036855;28;20036;-70
2022/09/12 06:48:17;;;;;;;5.13;4.47;;;15.00;99.90;;;;;;5035518;28;20468;-70
2022/09/12 06:50:53;;;;;;;4.93;4.43;;;15.10;99.90;;;;;;5036960;28;20025;-71
2022/09/12 06:53:19;;;;;;;5.18;4.68;;;15.10;99.80;;;;;;5033203;28;20037;-70
2022/09/12 06:55:45;;;;;;;7.60;4.85;;;15.30;99.80;;;;;;5041475;28;20032;-70
2022/09/12 06:58:10;;;;;;;4.53;4.05;;;15.50;99.70;;;;;;5039412;28;20127;-70
2022/09/12 07:00:37;;;;;;;4.53;4.10;;;15.80;99.90;;;;;;5038818;28;20028;-70
2022/09/12 07:03:03;;;;;;;4.72;4.28;;;16.00;99.20;;;;;;5035341;28;20044;-70
2022/09/12 07:05:28;;;;;;;5.82;4.68;;;16.10;98.90;;;;;;5037027;28;20036;-70
2022/09/12 07:07:54;;;;;;;4.97;4.43;;;16.20;98.90;;;;;;5034077;28;20068;-70
2022/09/12 07:10:21;;;;;;;5.90;4.93;;;16.30;98.90;;;;;;5034436;28;20654;-70
2022/09/12 07:12:47;;;;;;;5.15;4.65;;;16.40;99.00;;;;;;5034719;28;20098;-70
2022/09/12 07:15:12;;;;;;;5.03;4.53;;;16.50;99.00;;;;;;5042272;28;20029;-70
2022/09/12 07:17:38;;;;;;;4.32;3.80;;;16.60;98.90;;;;;;5041103;28;20515;-70
2022/09/12 07:20:04;;;;;;;4.93;4.25;;;16.70;98.60;;;;;;5037557;28;20456;-70
2022/09/12 07:22:30;;;;;;;5.63;4.68;;;16.70;98.50;;;;;;5038852;28;20477;-70
2022/09/12 07:24:56;;;;;;;5.97;4.30;;;16.80;98.40;;;;;;5035491;28;20036;-69
2022/09/12 07:27:22;;;;;;;5.75;4.53;;;16.70;97.80;;;;;;5035884;28;20033;-70
2022/09/12 07:29:47;;;;;;;5.85;5.13;;;16.80;97.60;;;;;;5032715;28;20542;-70
2022/09/12 07:32:13;;;;;;;5.95;4.43;;;16.80;97.40;;;;;;5036385;28;20890;-70
2022/09/12 07:34:39;;;;;;;6.57;4.50;;;16.90;97.30;;;;;;5040210;28;20037;-70
2022/09/12 07:37:05;;;;;;;4.38;3.75;;;17.00;97.20;;;;;;5038627;28;20036;-70
2022/09/12 07:39:31;;;;;;;3.85;3.45;;;17.10;96.90;;;;;;5038641;28;20033;-70
2022/09/12 07:41:57;;;;;;;4.53;3.50;;;17.30;96.70;;;;;;5035790;28;20025;-70
2022/09/12 07:44:24;;;;;;;3.40;2.75;;;17.40;96.40;;;;;;5036093;28;20040;-70
2022/09/12 07:46:49;;;;;;;4.22;2.97;;;17.40;96.00;;;;;;5033741;28;20777;-71
2022/09/12 07:49:15;;;;;;;3.85;2.50;;;17.40;95.90;;;;;;5032724;28;20037;-71
2022/09/12 07:51:42;;;;;;;2.95;2.60;;;17.40;95.90;;;;;;5041370;28;20025;-70
2022/09/12 07:54:08;;;;;;;3.75;3.35;;;17.50;95.90;;;;;;5039370;28;20087;-72
2022/09/12 07:56:34;;;;;;;3.13;2.92;;;17.40;96.00;;;;;;5039218;28;20044;-71
2022/09/12 07:58:59;;;;;;;4.28;3.88;;;17.50;96.00;;;;;;5036211;28;20041;-71
2022/09/12 08:01:26;;;;;;;3.92;3.53;;;17.50;95.50;;;;;;5034955;28;20072;-70
2022/09/12 08:03:57;;;;;;;3.65;3.35;;;17.50;95.50;;;;;;5034275;28;20106;-70
2022/09/12 08:06:24;;;;;;;4.10;3.70;;;17.60;95.70;;;;;;5034602;28;20033;-70
2022/09/12 08:08:51;;;;;;;5.07;4.18;;;17.60;95.80;;;;;;5035010;28;20032;-70
2022/09/12 08:11:19;;;;;;;5.80;3.97;;;17.60;95.90;;;;;;5040600;28;20045;-71
2022/09/12 08:13:47;;;;;;;3.80;3.40;;;17.60;95.70;;;;;;5040959;28;20515;-71
2022/09/12 08:16:19;;;;;;;3.97;3.30;;;17.70;95.50;;;;;;5042275;28;20033;-71
2022/09/12 08:18:45;;;;;;;3.28;2.95;;;17.70;95.80;;;;;;5034807;28;20051;-70
2022/09/12 08:21:18;;;;;;;3.72;2.60;;;17.80;95.70;;;;;;5034422;28;20033;-71
2022/09/12 08:23:44;;;;;;;3.50;3.05;;;17.80;95.60;;;;;;5034133;28;20025;-70
2022/09/12 08:26:11;;;;;;;2.58;2.38;;;17.80;95.30;;;;;;5032344;28;20033;-71
2022/09/12 08:28:40;;;;;;;4.13;3.20;;;17.90;95.10;;;;;;5037685;28;20155;-71
2022/09/12 08:31:09;;;;;;;4.72;3.20;;;18.00;94.80;;;;;;5039597;28;20504;-71
2022/09/12 08:33:35;;;;;;;3.33;3.03;;;17.90;94.40;;;;;;5041776;28;20033;-70
2022/09/12 08:36:09;;;;;;;2.72;2.50;;;17.90;94.20;;;;;;5039982;28;20033;-70
2022/09/12 08:38:36;;;;;;;3.10;2.80;;;17.90;93.90;;;;;;5040716;28;20489;-70
2022/09/12 08:41:18;;;;;;;2.92;2.47;;;18.00;93.60;;;;;;5036286;28;20033;-71
2022/09/12 08:44:08;;;;;;;2.13;1.92;;;18.00;93.50;;;;;;5037294;28;20078;-71
2022/09/12 08:46:58;;;;;;;2.40;2.20;;;18.20;93.30;;;;;;5037686;28;20020;-71
2022/09/12 08:49:35;;;;;;;3.17;2.33;;;18.20;93.40;;;;;;5043566;28;20036;-71
2022/09/12 08:52:15;;;;;;;3.05;2.10;;;18.30;93.20;;;;;;5039684;28;20059;-71
2022/09/12 08:54:44;;;;;;;3.28;2.28;;;18.40;93.20;;;;;;5042888;28;20040;-70
2022/09/12 08:57:10;;;;;;;1.85;1.65;;;18.50;93.20;;;;;;5038696;28;20071;-71
2022/09/12 08:59:41;;;;;;;1.80;1.63;;;18.60;93.30;;;;;;5039366;28;20040;-70
2022/09/12 09:02:40;;;;;;;2.15;1.83;;;18.60;93.30;;;;;;5035881;28;20112;-71
2022/09/12 09:05:25;;;;;;;3.88;2.10;;;18.70;92.90;;;;;;5033301;28;20045;-71
2022/09/12 09:07:57;;;;;;;2.75;1.95;;;18.70;91.60;;;;;;5039559;28;20025;-71
2022/09/12 09:10:33;;;;;;;2.55;1.75;;;18.70;91.30;;;;;;5042141;28;20052;-71
2022/09/12 09:16:20;;;;;;;1.52;1.42;;;18.90;90.70;;;;;;5043756;28;20036;-71
2022/09/12 09:18:47;;;;;;;;;;;19.00;90.00;;;;;;5037912;28;20112;-70
2022/09/12 09:21:29;;;;;;;2.58;1.27;;;19.10;90.00;;;;;;5035017;28;19920;-71
2022/09/12 09:24:06;;;;;;;2.33;1.17;;;19.10;90.40;;;;;;5032178;28;20468;-71
2022/09/12 09:26:58;;;;;;;2.17;1.50;;;19.20;90.40;;;;;;5040089;28;20043;-71
2022/09/12 09:29:35;;;;;;;2.65;1.42;;;19.20;90.50;;;;;;5041246;28;20041;-71
2022/09/12 09:32:09;;;;;;;2.08;1.25;;;19.30;90.70;;;;;;5038444;28;20040;-71
2022/09/12 09:34:34;;;;;;;2.38;1.30;;;19.30;88.30;;;;;;5039639;28;20370;-71
2022/09/12 09:37:06;;;;;;;1.52;1.10;;;19.40;88.10;;;;;;5034854;28;20029;-71
2022/09/12 09:39:43;;;;;;;1.65;1.10;;;19.50;85.70;;;;;;5037057;28;20038;-71
2022/09/12 09:42:34;;;;;;;1.15;1.05;;;19.60;86.40;;;;;;5033512;28;20033;-71
2022/09/12 09:45:03;;;;;;;3.50;1.30;;;19.60;86.60;;;;;;5039409;28;20818;-71
2022/09/12 09:47:29;;;;;;;1.83;1.60;;;19.80;86.30;;;;;;5039561;28;20060;-71
2022/09/12 09:49:54;;;;;;;2.08;1.35;;;19.80;87.00;;;;;;5039715;28;20051;-71
2022/09/12 09:52:27;;;;;;;2.42;1.60;;;19.90;87.00;;;;;;5038405;28;20033;-71
2022/09/12 09:55:00;;;;;;;3.88;1.40;;;20.00;84.60;;;;;;5036576;28;20562;-71
2022/09/12 09:57:35;;;;;;;2.35;1.30;;;20.10;83.30;;;;;;5036067;28;20039;-70
2022/09/12 10:00:25;;;;;;;2.15;1.48;;;20.10;83.90;;;;;;5032769;28;20040;-71
2022/09/12 10:03:06;;;;;;;4.85;1.35;;;20.20;82.10;;;;;;5041770;28;20039;-71
2022/09/12 10:05:36;;;;;;;1.83;1.52;;;20.30;83.90;;;;;;5039502;28;20031;-71
2022/09/12 10:08:04;;;;;;;2.80;1.48;;;20.60;83.20;;;;;;5038943;28;20035;-72
2022/09/12 10:10:30;;;;;;;1.38;1.20;;;20.80;83.40;;;;;;5039119;28;20036;-71
2022/09/12 10:13:08;;;;;;;1.90;1.48;;;21.20;80.60;;;;;;5035936;28;20033;-71
2022/09/12 10:15:35;;;;;;;1.85;1.15;;;21.70;78.90;;;;;;5040912;28;20041;-71
2022/09/12 10:18:01;;;;;;;6.00;2.03;;;22.10;76.00;;;;;;5035700;28;20095;-71
2022/09/12 10:20:43;;;;;;;4.70;1.95;;;22.40;77.00;;;;;;5034752;28;20070;-71
2022/09/12 10:23:18;;;;;;;3.03;1.40;;;22.80;74.00;;;;;;5039160;28;20485;-71
2022/09/12 10:25:52;;;;;;;2.67;1.75;;;23.00;74.70;;;;;;5040607;28;20028;-71
2022/09/12 10:28:36;;;;;;;1.58;1.48;;;22.80;72.20;;;;;;5038770;28;20405;-71
2022/09/12 10:31:03;;;;;;;15.93;3.58;;;22.60;72.80;;;;;;5036268;28;20037;-71
2022/09/12 10:33:29;;;;;;;13.02;2.63;;;22.40;74.40;;;;;;5037403;28;20033;-71
2022/09/12 10:35:55;;;;;;;7.55;2.03;;;22.20;73.80;;;;;;5034496;28;20036;-71
2022/09/12 10:38:27;;;;;;;3.47;1.10;;;22.10;74.20;;;;;;5035126;28;20032;-72
2022/09/12 10:41:03;;;;;;;2.38;1.33;;;22.00;74.30;;;;;;5038699;28;20028;-71
2022/09/12 10:43:33;;;;;;;1.15;1.05;;;22.00;74.10;;;;;;5052641;28;20033;-71
2022/09/12 10:46:18;;;;;;;1.75;1.23;;;22.00;71.70;;;;;;5039439;28;20132;-71
2022/09/12 10:49:10;;;;;;;1.20;1.10;;;22.10;73.30;;;;;;5035311;28;20039;-71
2022/09/12 10:51:36;;;;;;;1.33;1.15;;;22.20;71.20;;;;;;5037461;28;20821;-71
2022/09/12 10:54:06;;;;;;;1.27;1.00;;;22.30;70.10;;;;;;5032891;28;20030;-71
2022/09/12 10:56:42;;;;;;;1.60;1.02;;;22.50;69.40;;;;;;5035194;28;20112;-71
2022/09/12 10:59:35;;;;;;;1.95;1.02;;;22.80;70.00;;;;;;5036731;28;20037;-72
2022/09/12 11:02:13;;;;;;;2.08;0.90;;;22.80;67.00;;;;;;5030412;28;20065;-70
2022/09/12 11:04:42;;;;;;;2.30;1.25;;;22.60;67.70;;;;;;5037100;28;20028;-71
2022/09/12 11:07:42;;;;;;;1.00;0.90;;;22.30;67.80;;;;;;5033462;28;20026;-71
2022/09/12 11:10:26;;;;;;;1.15;0.70;;;22.20;68.80;;;;;;5034273;28;20048;-72
2022/09/12 11:13:01;;;;;;;1.13;1.00;;;22.10;70.40;;;;;;5032093;28;20058;-70
2022/09/12 11:15:51;;;;;;;3.50;1.17;;;22.00;65.20;;;;;;5036315;28;20481;-71
2022/09/12 11:18:30;;;;;;;1.50;0.90;;;21.90;64.80;;;;;;5035823;28;20407;-71
2022/09/12 11:21:14;;;;;;;2.15;1.10;;;21.70;68.40;;;;;;5035497;28;20431;-71
2022/09/12 11:23:43;;;;;;;1.23;1.00;;;21.60;70.40;;;;;;5036975;28;20825;-70
2022/09/12 11:26:21;;;;;;;1.40;1.10;;;21.70;73.10;;;;;;5033199;28;20033;-71
2022/09/12 11:29:08;;;;;;;2.85;0.65;;;21.80;69.40;;;;;;5034697;28;20545;-71
2022/09/12 11:32:01;;;;;;;0.88;0.70;;;21.80;69.80;;;;;;5033203;28;20029;-71
2022/09/12 11:34:48;;;;;;;2.13;0.93;;;22.00;71.80;;;;;;5031155;28;20060;-72
2022/09/12 11:37:59;;;;;;;1.55;1.05;;;22.10;68.60;;;;;;5034268;28;20064;-71
2022/09/12 11:40:47;;;;;;;0.70;0.70;;;22.10;68.30;;;;;;5038354;28;20120;-70
2022/09/12 11:43:28;;;;;;;2.50;0.90;;;22.00;67.60;;;;;;5036013;28;20034;-70
2022/09/12 11:45:58;;;;;;;1.20;1.10;;;22.00;66.20;;;;;;5034764;28;20033;-71
2022/09/12 11:48:47;;;;;;;4.90;1.25;;;22.00;69.30;;;;;;5034709;28;20687;-70
2022/09/12 11:51:32;;;;;;;2.20;1.00;;;22.10;69.80;;;;;;5031525;28;20136;-71
2022/09/12 11:54:26;;;;;;;1.15;0.90;;;22.10;68.70;;;;;;5028296;28;20519;-70
2022/09/12 11:57:02;;;;;;;3.25;1.35;;;22.10;67.40;;;;;;5025555;28;20052;-70
2022/09/12 11:59:48;;;;;;;2.10;1.13;;;22.20;68.70;;;;;;5035550;28;20032;-71
2022/09/12 12:02:54;;;;;;;1.20;0.98;;;22.20;67.70;;;;;;5036469;28;20121;-70
2022/09/12 12:05:24;;;;;;;1.25;0.88;;;22.30;66.60;;;;;;5040952;28;20486;-70
2022/09/12 12:07:53;;;;;;;2.17;1.13;;;22.30;64.30;;;;;;5037377;28;20035;-71
2022/09/12 12:10:30;;;;;;;3.30;1.10;;;22.20;66.80;;;;;;5037185;28;20042;-69
2022/09/12 12:12:58;;;;;;;1.30;0.70;;;22.10;66.20;;;;;;5037537;28;20037;-71
2022/09/12 12:15:25;;;;;;;1.13;0.90;;;22.00;65.90;;;;;;5039372;28;20084;-70
2022/09/12 12:18:21;;;;;;;0.73;0.73;;;22.10;67.80;;;;;;5040251;28;20025;-71
2022/09/12 12:20:48;;;;;;;0.80;0.80;;;22.00;67.50;;;;;;5038618;28;20428;-70
2022/09/12 12:24:02;;;;;;;0.98;0.90;;;22.10;68.40;;;;;;5038261;28;20496;-69
2022/09/12 12:26:40;;;;;;;1.15;0.93;;;22.10;66.70;;;;;;5039079;28;20072;-70
2022/09/12 12:29:09;;;;;;;1.23;0.90;;;22.10;64.70;;;;;;5036004;28;20033;-71
2022/09/12 12:32:02;;;;;;;0.85;0.80;;;22.10;64.60;;;;;;5036455;28;20037;-71
2022/09/12 12:34:39;;;;;;;4.20;1.00;;;22.10;66.80;;;;;;5033922;28;20041;-71
2022/09/12 12:37:19;;;;;;;1.27;0.90;;;22.10;67.00;;;;;;5041448;28;20032;-71
2022/09/12 12:39:49;;;;;;;2.78;1.05;;;22.00;66.00;;;;;;5041181;28;20029;-70
2022/09/12 12:42:33;;;;;;;1.25;1.00;;;22.00;65.70;;;;;;5038946;28;20069;-70
2022/09/12 12:45:08;;;;;;;1.33;0.88;;;22.00;66.60;;;;;;5035959;28;20036;-71
2022/09/12 12:47:37;;;;;;;1.77;0.93;;;22.00;66.80;;;;;;5037651;28;20036;-70
2022/09/12 12:50:15;;;;;;;1.58;0.73;;;22.00;67.30;;;;;;5034171;28;20033;-71
2022/09/12 12:53:05;;;;;;;1.88;0.80;;;22.10;67.00;;;;;;5038916;28;20029;-71
2022/09/12 12:55:44;;;;;;;1.70;0.80;;;22.20;67.60;;;;;;5036256;28;20029;-70
2022/09/12 12:58:37;;;;;;;1.45;0.88;;;22.20;66.80;;;;;;5039225;28;20704;-73
2022/09/12 13:01:18;;;;;;;1.45;0.73;;;22.30;66.50;;;;;;5038356;28;20040;-70
2022/09/12 13:03:53;;;;;;;1.63;0.85;;;22.20;64.90;;;;;;5037510;28;20391;-70
2022/09/12 13:06:37;;;;;;;0.70;0.70;;;22.20;65.80;;;;;;5037291;28;20064;-71
2022/09/12 13:09:18;;;;;;;0.80;0.80;;;22.10;65.50;;;;;;5035436;28;20509;-71
2022/09/12 13:11:44;;;;;;;0.90;0.90;;;22.10;63.80;;;;;;5040051;28;20036;-70
2022/09/12 13:14:45;;;;;;;1.27;0.80;;;22.00;63.70;;;;;;5041159;28;20044;-70
2022/09/12 13:17:32;;;;;;;1.02;0.80;;;22.00;64.50;;;;;;5037282;28;20048;-71
2022/09/12 13:20:05;;;;;;;1.30;0.90;;;22.00;66.00;;;;;;5037924;28;20086;-71